createdAt,value
2023-04-12T00:00:13.576Z,75.84
2023-04-12T00:03:10.666Z,75.76
2023-04-12T00:05:47.067Z,75.97
2023-04-12T00:08:24.664Z,75.88
2023-04-12T00:10:57.153Z,75.89
2023-04-12T00:13:29.675Z,75.80
2023-04-12T00:16:02.386Z,75.74
2023-04-12T00:18:36.214Z,75.93
2023-04-12T00:21:12.315Z,75.91
2023-04-12T00:23:45.387Z,75.78
2023-04-12T00:26:17.755Z,75.64
2023-04-12T00:28:50.489Z,75.73
2023-04-12T00:31:26.927Z,75.69
2023-04-12T00:33:59.718Z,75.86
2023-04-12T00:36:32.641Z,75.87
2023-04-12T00:39:05.758Z,75.68
2023-04-12T00:41:39.261Z,75.85
2023-04-12T00:44:12.644Z,75.83
2023-04-12T00:46:45.605Z,75.93
2023-04-12T00:49:18.885Z,75.83
2023-04-12T00:51:51.489Z,75.76
2023-04-12T00:54:25.917Z,75.82
2023-04-12T00:57:07.708Z,75.77
2023-04-12T00:59:41.005Z,75.70
2023-04-12T01:02:13.929Z,75.55
2023-04-12T01:04:50.730Z,75.38
2023-04-12T01:07:37.367Z,75.43
2023-04-12T01:10:26.279Z,75.55
2023-04-12T01:13:08.037Z,75.72
2023-04-12T01:15:56.244Z,75.69
2023-04-12T01:18:34.836Z,75.58
2023-04-12T01:21:11.698Z,75.50
2023-04-12T01:24:04.103Z,75.39
2023-04-12T01:26:45.703Z,75.32
2023-04-12T01:29:22.399Z,75.32
2023-04-12T01:31:59.700Z,75.23
2023-04-12T01:34:34.973Z,75.25
2023-04-12T01:37:08.107Z,75.35
2023-04-12T01:39:41.060Z,75.59
2023-04-12T01:42:13.704Z,75.57
2023-04-12T01:44:46.196Z,75.59
2023-04-12T01:47:19.612Z,75.71
2023-04-12T01:50:02.424Z,75.57
2023-04-12T01:52:42.717Z,75.61
2023-04-12T01:55:16.328Z,75.72
2023-04-12T01:57:51.742Z,75.79
2023-04-12T02:00:25.429Z,76.08
2023-04-12T02:03:03.348Z,76.13
2023-04-12T02:05:40.066Z,75.87
2023-04-12T02:08:15.650Z,75.51
2023-04-12T02:10:48.140Z,75.25
2023-04-12T02:13:21.703Z,75.03
2023-04-12T02:16:04.823Z,74.77
2023-04-12T02:18:59.133Z,74.74
2023-04-12T02:21:43.152Z,74.95
2023-04-12T02:24:16.630Z,75.16
2023-04-12T02:26:50.935Z,75.27
2023-04-12T02:29:24.154Z,75.40
2023-04-12T02:31:57.881Z,75.51
2023-04-12T02:34:34.397Z,75.35
2023-04-12T02:37:17.888Z,75.26
2023-04-12T02:39:50.595Z,75.36
2023-04-12T02:42:23.905Z,75.37
2023-04-12T02:44:56.535Z,75.46
2023-04-12T02:47:30.595Z,75.40
2023-04-12T02:50:04.059Z,75.44
2023-04-12T02:52:43.960Z,75.26
2023-04-12T02:55:20.450Z,75.23
2023-04-12T02:57:53.686Z,75.29
2023-04-12T03:00:27.792Z,75.15
2023-04-12T03:03:05.173Z,75.31
2023-04-12T03:05:38.155Z,75.32
2023-04-12T03:08:11.164Z,75.44
2023-04-12T03:10:48.386Z,75.41
2023-04-12T03:13:21.269Z,75.51
2023-04-12T03:15:59.843Z,75.52
2023-04-12T03:18:39.725Z,75.44
2023-04-12T03:21:12.521Z,75.47
2023-04-12T03:23:45.903Z,75.51
2023-04-12T03:26:22.586Z,75.64
2023-04-12T03:29:09.456Z,75.64
2023-04-12T03:31:43.711Z,75.52
2023-04-12T03:34:19.358Z,75.63
2023-04-12T03:36:56.757Z,75.57
2023-04-12T03:39:44.931Z,75.48
2023-04-12T03:42:31.687Z,75.43
2023-04-12T03:45:08.295Z,75.47
2023-04-12T03:47:40.948Z,75.34
2023-04-12T03:50:14.198Z,75.18
2023-04-12T03:52:51.957Z,74.91
2023-04-12T03:55:25.375Z,74.78
2023-04-12T03:58:00.212Z,74.80
2023-04-12T04:00:36.070Z,74.76
2023-04-12T04:03:13.986Z,74.72
2023-04-12T04:05:50.965Z,74.79
2023-04-12T04:08:25.137Z,74.85
2023-04-12T04:10:59.493Z,74.87
2023-04-12T04:13:36.888Z,74.78
2023-04-12T04:16:14.053Z,74.71
2023-04-12T04:18:47.011Z,74.75
2023-04-12T04:21:32.455Z,74.83
2023-04-12T04:24:07.250Z,74.77
2023-04-12T04:26:43.583Z,74.71
2023-04-12T04:29:25.809Z,74.79
2023-04-12T04:31:59.857Z,74.72
2023-04-12T04:34:32.683Z,74.51
2023-04-12T04:37:13.832Z,74.58
2023-04-12T04:39:46.850Z,74.67
2023-04-12T04:42:23.037Z,74.62
2023-04-12T04:45:14.842Z,74.39
2023-04-12T04:47:49.565Z,74.36
2023-04-12T04:50:23.049Z,74.56
2023-04-12T04:52:55.990Z,74.57
2023-04-12T04:55:31.774Z,74.57
2023-04-12T04:58:08.799Z,74.33
2023-04-12T05:00:46.158Z,74.38
2023-04-12T05:03:22.369Z,74.42
2023-04-12T05:06:01.292Z,74.14
2023-04-12T05:08:44.998Z,74.16
2023-04-12T05:11:19.675Z,74.28
2023-04-12T05:13:52.788Z,74.41
2023-04-12T05:16:28.967Z,74.21
2023-04-12T05:19:01.488Z,74.23
2023-04-12T05:21:35.998Z,74.21
2023-04-12T05:24:09.763Z,74.14
2023-04-12T05:26:42.598Z,74.10
2023-04-12T05:29:19.460Z,74.07
2023-04-12T05:31:52.061Z,73.88
2023-04-12T05:34:27.850Z,73.91
2023-04-12T05:37:01.444Z,73.80
2023-04-12T05:39:37.924Z,73.92
2023-04-12T05:42:11.392Z,73.92
2023-04-12T05:44:46.947Z,73.80
2023-04-12T05:47:41.129Z,73.64
2023-04-12T05:50:14.385Z,73.54
2023-04-12T05:52:58.394Z,73.32
2023-04-12T05:55:38.200Z,73.19
2023-04-12T05:58:22.318Z,73.25
2023-04-12T06:00:58.700Z,73.16
2023-04-12T06:03:32.519Z,73.02
2023-04-12T06:06:15.250Z,72.70
2023-04-12T06:08:55.602Z,72.56
2023-04-12T06:11:28.935Z,72.37
2023-04-12T06:14:01.576Z,72.22
2023-04-12T06:16:39.494Z,72.15
2023-04-12T06:19:13.006Z,72.10
2023-04-12T06:21:46.955Z,72.05
2023-04-12T06:24:20.154Z,71.96
2023-04-12T06:26:53.564Z,71.75
2023-04-12T06:29:26.455Z,71.41
2023-04-12T06:31:59.496Z,71.31
2023-04-12T06:34:34.071Z,71.26
2023-04-12T06:37:11.978Z,71.41
2023-04-12T06:39:44.957Z,71.44
2023-04-12T06:42:18.854Z,71.58
2023-04-12T06:44:51.665Z,71.63
2023-04-12T06:47:25.872Z,70.96
2023-04-12T06:50:00.907Z,70.71
2023-04-12T06:52:36.076Z,70.38
2023-04-12T06:55:10.636Z,70.17
2023-04-12T06:57:44.739Z,69.90
2023-04-12T07:00:30.749Z,69.99
2023-04-12T07:03:03.615Z,69.82
2023-04-12T07:05:38.945Z,69.58
2023-04-12T07:08:14.232Z,69.60
2023-04-12T07:10:56.450Z,69.61
2023-04-12T07:13:29.207Z,69.74
2023-04-12T07:16:05.910Z,69.42
2023-04-12T07:18:40.101Z,69.36
2023-04-12T07:21:17.626Z,69.24
2023-04-12T07:23:51.471Z,69.39
2023-04-12T07:26:26.287Z,69.43
2023-04-12T07:28:59.088Z,69.36
2023-04-12T07:31:38.612Z,69.33
2023-04-12T07:34:11.530Z,69.26
2023-04-12T07:36:45.159Z,69.43
2023-04-12T07:39:17.916Z,69.16
2023-04-12T07:41:52.286Z,69.26
2023-04-12T07:44:25.291Z,68.91
2023-04-12T07:46:58.001Z,69.03
2023-04-12T07:49:33.489Z,69.04
2023-04-12T07:52:08.914Z,68.94
2023-04-12T07:54:42.752Z,68.83
2023-04-12T07:57:16.150Z,68.61
2023-04-12T07:59:48.736Z,68.57
2023-04-12T08:02:26.250Z,68.51
2023-04-12T08:04:59.260Z,68.73
2023-04-12T08:07:34.621Z,68.92
2023-04-12T08:10:08.559Z,68.93
2023-04-12T08:12:41.464Z,69.09
2023-04-12T08:15:16.616Z,68.85
2023-04-12T08:17:49.462Z,68.77
2023-04-12T08:20:22.442Z,68.77
2023-04-12T08:22:56.622Z,68.50
2023-04-12T08:25:31.682Z,68.21
2023-04-12T08:28:04.997Z,68.06
2023-04-12T08:30:37.922Z,68.00
2023-04-12T08:33:10.533Z,68.01
2023-04-12T08:35:43.260Z,67.61
2023-04-12T08:38:18.125Z,67.51
2023-04-12T08:40:51.120Z,67.20
2023-04-12T08:43:27.565Z,67.07
2023-04-12T08:46:01.901Z,67.08
2023-04-12T08:48:35.018Z,66.71
2023-04-12T08:51:09.685Z,66.59
2023-04-12T08:53:42.864Z,66.00
2023-04-12T08:56:17.908Z,65.90
2023-04-12T08:58:53.876Z,65.55
2023-04-12T09:01:26.742Z,65.34
2023-04-12T09:03:59.839Z,65.31
2023-04-12T09:06:33.642Z,65.33
2023-04-12T09:09:08.305Z,65.32
2023-04-12T09:11:51.986Z,65.34
2023-04-12T09:14:26.872Z,65.48
2023-04-12T09:16:59.580Z,65.41
2023-04-12T09:19:36.522Z,65.59
2023-04-12T09:22:09.295Z,65.74
2023-04-12T09:24:53.172Z,65.92
2023-04-12T09:27:29.813Z,66.02
2023-04-12T09:30:13.296Z,65.92
2023-04-12T09:32:50.529Z,65.98
2023-04-12T09:35:37.135Z,66.24
2023-04-12T09:38:12.373Z,66.45
2023-04-12T09:40:45.137Z,66.25
2023-04-12T09:43:17.524Z,66.63
2023-04-12T09:45:50.491Z,66.58
2023-04-12T09:48:26.429Z,66.30
2023-04-12T09:51:03.142Z,66.14
2023-04-12T09:53:42.428Z,66.19
2023-04-12T09:56:21.279Z,66.06
2023-04-12T09:58:56.513Z,66.02
2023-04-12T10:01:42.310Z,65.96
2023-04-12T10:04:15.589Z,65.95
2023-04-12T10:06:52.543Z,66.04
2023-04-12T10:09:29.110Z,66.01
2023-04-12T10:12:05.945Z,65.62
2023-04-12T10:14:39.011Z,65.53
2023-04-12T10:17:14.439Z,65.37
2023-04-12T10:19:49.022Z,65.26
2023-04-12T10:22:21.841Z,65.34
2023-04-12T10:24:54.831Z,65.57
2023-04-12T10:27:33.149Z,65.44
2023-04-12T10:30:26.468Z,65.23
2023-04-12T10:33:20.558Z,64.93
2023-04-12T10:36:00.541Z,64.93
2023-04-12T10:38:48.837Z,64.88
2023-04-12T10:41:25.598Z,64.79
2023-04-12T10:44:27.591Z,64.60
2023-04-12T10:47:12.628Z,63.84
2023-04-12T10:50:25.132Z,63.46
2023-04-12T10:53:27.867Z,63.32
2023-04-12T10:56:01.078Z,63.37
2023-04-12T10:59:00.542Z,62.70
2023-04-12T11:01:40.053Z,62.90
2023-04-12T11:04:22.496Z,62.41
2023-04-12T11:07:12.311Z,62.02
2023-04-12T11:09:48.826Z,62.02
2023-04-12T11:12:33.946Z,61.98
2023-04-12T11:15:13.219Z,62.08
2023-04-12T11:18:01.052Z,61.80
2023-04-12T11:20:37.655Z,62.18
2023-04-12T11:23:12.436Z,62.34
2023-04-12T11:25:45.304Z,62.25
2023-04-12T11:28:29.688Z,62.45
2023-04-12T11:31:07.536Z,62.63
2023-04-12T11:33:42.713Z,62.46
2023-04-12T11:36:17.325Z,62.45
2023-04-12T11:39:14.610Z,62.31
2023-04-12T11:41:49.154Z,61.92
2023-04-12T11:44:22.968Z,61.58
2023-04-12T11:46:55.859Z,61.68
2023-04-12T11:49:28.830Z,61.58
2023-04-12T11:52:08.609Z,61.73
2023-04-12T11:54:44.975Z,61.81
2023-04-12T11:57:19.129Z,61.76
2023-04-12T11:59:52.624Z,61.87
2023-04-12T12:02:27.968Z,61.91
2023-04-12T12:05:04.198Z,61.78
2023-04-12T12:07:41.275Z,61.60
2023-04-12T12:10:23.945Z,61.57
2023-04-12T12:13:10.645Z,61.52
2023-04-12T12:15:48.416Z,61.29
2023-04-12T12:18:26.404Z,60.92
2023-04-12T12:21:03.901Z,60.42
2023-04-12T12:23:40.176Z,58.81
2023-04-12T12:26:22.626Z,58.16
2023-04-12T12:29:09.251Z,58.92
2023-04-12T12:31:49.390Z,59.36
2023-04-12T12:34:26.392Z,60.12
2023-04-12T12:36:59.154Z,60.53
2023-04-12T12:39:35.198Z,61.20
2023-04-12T12:42:08.247Z,62.29
2023-04-12T12:44:44.573Z,62.84
2023-04-12T12:47:17.392Z,63.54
2023-04-12T12:49:58.115Z,63.70
2023-04-12T12:52:34.036Z,63.55
2023-04-12T12:55:08.033Z,63.06
2023-04-12T12:57:43.384Z,62.60
2023-04-12T13:00:18.152Z,62.01
2023-04-12T13:02:51.080Z,61.52
2023-04-12T13:05:24.587Z,60.55
2023-04-12T13:08:07.001Z,60.03
2023-04-12T13:10:43.974Z,58.50
2023-04-12T13:13:16.750Z,58.75
2023-04-12T13:15:51.834Z,58.87
2023-04-12T13:18:27.094Z,58.49
2023-04-12T13:21:10.498Z,58.53
2023-04-12T13:23:52.383Z,57.60
2023-04-12T13:26:27.238Z,58.47
2023-04-12T13:29:03.830Z,57.51
2023-04-12T13:31:37.428Z,57.08
2023-04-12T13:34:13.014Z,57.92
2023-04-12T13:36:45.905Z,57.79
2023-04-12T13:39:21.966Z,58.46
2023-04-12T13:41:55.233Z,59.26
2023-04-12T13:44:28.618Z,59.97
2023-04-12T13:47:01.010Z,60.45
2023-04-12T13:49:36.032Z,60.82
2023-04-12T13:52:09.051Z,61.15
2023-04-12T13:54:43.432Z,61.58
2023-04-12T13:57:16.393Z,61.16
2023-04-12T13:59:49.394Z,61.23
2023-04-12T14:02:22.360Z,61.63
2023-04-12T14:05:01.793Z,61.17
2023-04-12T14:07:34.677Z,60.64
2023-04-12T14:10:09.404Z,61.00
2023-04-12T14:12:41.850Z,61.53
2023-04-12T14:15:14.955Z,61.25
2023-04-12T14:17:48.337Z,61.14
2023-04-12T14:20:24.848Z,60.46
2023-04-12T14:22:58.079Z,60.44
2023-04-12T14:25:35.294Z,59.85
2023-04-12T14:28:10.319Z,59.96
2023-04-12T14:30:45.578Z,60.14
2023-04-12T14:33:29.492Z,60.02
2023-04-12T14:36:05.162Z,59.68
2023-04-12T14:38:40.016Z,59.59
2023-04-12T14:41:14.267Z,59.67
2023-04-12T14:43:47.060Z,59.72
2023-04-12T14:46:20.279Z,59.68
2023-04-12T14:48:53.027Z,59.85
2023-04-12T14:51:26.287Z,60.04
2023-04-12T14:53:59.458Z,60.42
2023-04-12T14:56:36.467Z,60.88
2023-04-12T14:59:11.753Z,61.29
2023-04-12T15:01:45.725Z,61.67
2023-04-12T15:04:19.532Z,62.01
2023-04-12T15:06:52.413Z,62.03
2023-04-12T15:09:26.238Z,62.01
2023-04-12T15:12:02.153Z,61.93
2023-04-12T15:14:46.389Z,61.93
2023-04-12T15:17:20.139Z,61.99
2023-04-12T15:19:57.829Z,61.89
2023-04-12T15:22:30.261Z,61.61
2023-04-12T15:25:03.229Z,61.16
2023-04-12T15:27:38.923Z,60.71
2023-04-12T15:30:15.439Z,60.16
2023-04-12T15:32:48.999Z,59.69
2023-04-12T15:35:27.145Z,59.85
2023-04-12T15:38:03.082Z,59.60
2023-04-12T15:40:45.958Z,59.63
2023-04-12T15:43:23.659Z,59.50
2023-04-12T15:46:02.586Z,60.00
2023-04-12T15:48:38.989Z,60.24
2023-04-12T15:51:11.597Z,60.42
2023-04-12T15:54:05.496Z,60.36
2023-04-12T15:56:38.732Z,60.36
2023-04-12T15:59:22.007Z,60.60
2023-04-12T16:01:56.968Z,60.74
2023-04-12T16:04:33.444Z,60.55
2023-04-12T16:07:17.102Z,60.19
2023-04-12T16:09:49.584Z,59.80
2023-04-12T16:12:26.260Z,59.56
2023-04-12T16:15:10.842Z,59.87
2023-04-12T16:17:47.209Z,59.41
2023-04-12T16:20:22.159Z,58.56
2023-04-12T16:23:03.903Z,58.57
2023-04-12T16:25:37.080Z,58.90
2023-04-12T16:28:09.446Z,58.80
2023-04-12T16:30:42.123Z,59.17
2023-04-12T16:33:14.800Z,58.99
2023-04-12T16:35:50.651Z,58.58
2023-04-12T16:38:26.574Z,58.07
2023-04-12T16:41:02.486Z,57.98
2023-04-12T16:43:35.310Z,57.73
2023-04-12T16:46:09.104Z,57.32
2023-04-12T16:48:44.874Z,57.26
2023-04-12T16:51:17.808Z,57.73
2023-04-12T16:53:54.536Z,57.65
2023-04-12T16:56:28.568Z,58.13
2023-04-12T16:59:01.588Z,58.84
2023-04-12T17:01:44.264Z,59.10
2023-04-12T17:04:19.781Z,59.96
2023-04-12T17:06:52.353Z,60.80
2023-04-12T17:09:25.084Z,61.41
2023-04-12T17:12:07.761Z,61.87
2023-04-12T17:14:44.004Z,63.62
2023-04-12T17:17:19.947Z,65.09
2023-04-12T17:19:52.889Z,65.48
2023-04-12T17:22:25.600Z,65.76
2023-04-12T17:25:10.491Z,66.31
2023-04-12T17:27:43.186Z,66.19
2023-04-12T17:30:17.864Z,66.07
2023-04-12T17:32:51.872Z,66.08
2023-04-12T17:35:28.761Z,66.21
2023-04-12T17:38:04.191Z,66.47
2023-04-12T17:40:40.391Z,66.73
2023-04-12T17:43:34.231Z,67.25
2023-04-12T17:46:10.525Z,68.08
2023-04-12T17:48:54.496Z,69.22
2023-04-12T17:51:27.147Z,67.94
2023-04-12T17:54:00.928Z,66.19
2023-04-12T17:56:33.688Z,66.05
2023-04-12T17:59:17.557Z,65.43
2023-04-12T18:01:53.760Z,65.74
2023-04-12T18:04:48.499Z,66.11
2023-04-12T18:07:42.470Z,66.56
2023-04-12T18:10:26.804Z,67.06
2023-04-12T18:12:59.842Z,67.36
2023-04-12T18:15:35.671Z,67.76
2023-04-12T18:18:13.287Z,68.42
2023-04-12T18:20:49.374Z,68.91
2023-04-12T18:23:28.190Z,69.28
2023-04-12T18:26:00.879Z,69.32
2023-04-12T18:28:43.585Z,69.46
2023-04-12T18:31:21.235Z,69.90
2023-04-12T18:34:14.113Z,70.04
2023-04-12T18:36:58.397Z,70.23
2023-04-12T18:39:44.025Z,70.71
2023-04-12T18:42:37.787Z,70.90
2023-04-12T18:45:22.325Z,71.04
2023-04-12T18:48:15.844Z,71.55
2023-04-12T18:51:07.991Z,71.81
2023-04-12T18:53:54.323Z,72.13
2023-04-12T18:56:42.325Z,72.18
2023-04-12T18:59:27.700Z,72.36
2023-04-12T19:02:05.293Z,72.63
2023-04-12T19:04:51.439Z,72.87
2023-04-12T19:07:44.685Z,72.85
2023-04-12T19:10:30.950Z,72.98
2023-04-12T19:13:13.453Z,73.26
2023-04-12T19:16:08.728Z,73.28
2023-04-12T19:19:01.913Z,73.25
2023-04-12T19:21:35.577Z,73.40
2023-04-12T19:24:18.440Z,73.38
2023-04-12T19:27:11.604Z,73.47
2023-04-12T19:29:58.819Z,73.51
2023-04-12T19:32:51.979Z,73.38
2023-04-12T19:35:45.056Z,73.35
2023-04-12T19:38:43.181Z,73.51
2023-04-12T19:41:36.277Z,73.53
2023-04-12T19:44:23.273Z,73.48
2023-04-12T19:47:15.961Z,73.63
2023-04-12T19:49:56.059Z,73.70
2023-04-12T19:52:49.749Z,73.75
2023-04-12T19:55:43.502Z,73.91
2023-04-12T19:58:34.834Z,73.93
2023-04-12T20:01:17.759Z,74.10
2023-04-12T20:04:10.537Z,74.53
2023-04-12T20:07:04.984Z,74.77
2023-04-12T20:09:47.962Z,74.80
2023-04-12T20:12:29.814Z,74.93
2023-04-12T20:15:22.511Z,75.07
2023-04-12T20:18:15.916Z,75.43
2023-04-12T20:21:10.167Z,75.51
2023-04-12T20:23:55.586Z,75.57
2023-04-12T20:26:33.158Z,75.46
2023-04-12T20:29:25.924Z,75.79
2023-04-12T20:32:18.382Z,75.81
2023-04-12T20:35:13.202Z,76.05
2023-04-12T20:38:07.943Z,76.27
2023-04-12T20:41:00.643Z,76.45
2023-04-12T20:43:55.163Z,76.62
2023-04-12T20:46:49.057Z,76.66
2023-04-12T20:49:43.397Z,76.62
2023-04-12T20:52:36.585Z,76.72
2023-04-12T20:55:25.284Z,76.52
2023-04-12T20:58:09.543Z,76.44
2023-04-12T21:01:05.094Z,76.25
2023-04-12T21:03:54.633Z,76.31
2023-04-12T21:06:48.760Z,76.28
2023-04-12T21:09:41.512Z,76.24
2023-04-12T21:12:35.714Z,76.23
2023-04-12T21:15:12.648Z,76.15
2023-04-12T21:18:05.795Z,76.02
2023-04-12T21:21:04.045Z,75.87
2023-04-12T21:23:46.595Z,75.98
2023-04-12T21:26:39.541Z,76.11
2023-04-12T21:32:42.919Z,76.38
2023-04-12T21:35:36.409Z,76.39
2023-04-12T21:38:22.406Z,76.39
2023-04-12T21:41:13.147Z,76.38
2023-04-12T21:44:08.871Z,76.37
2023-04-12T21:47:01.655Z,76.49
2023-04-12T21:49:58.565Z,76.65
2023-04-12T21:52:51.391Z,76.76
2023-04-12T21:55:44.546Z,76.89
2023-04-12T21:58:30.264Z,77.02
2023-04-12T22:01:25.959Z,77.28
2023-04-12T22:04:10.027Z,77.32
2023-04-12T22:07:03.968Z,77.36
2023-04-12T22:09:49.040Z,77.55
2023-04-12T22:12:42.442Z,77.85
2023-04-12T22:15:35.894Z,77.61
2023-04-12T22:18:14.657Z,77.44
2023-04-12T22:20:51.022Z,77.24
2023-04-12T22:23:45.080Z,77.08
2023-04-12T22:26:37.781Z,76.93
2023-04-12T22:29:30.563Z,76.92
2023-04-12T22:32:23.311Z,77.00
2023-04-12T22:35:16.195Z,76.98
2023-04-12T22:38:10.013Z,77.04
2023-04-12T22:41:03.094Z,77.08
2023-04-12T22:43:49.977Z,77.00
2023-04-12T22:46:43.983Z,77.37
2023-04-12T22:49:50.410Z,77.54
2023-04-12T22:52:38.627Z,77.08
2023-04-12T22:55:22.287Z,76.74
2023-04-12T22:58:15.623Z,76.45
2023-04-12T23:00:59.342Z,76.07
2023-04-12T23:03:52.015Z,75.59
2023-04-12T23:06:41.667Z,75.58
2023-04-12T23:09:25.610Z,75.50
2023-04-12T23:12:20.465Z,75.70
2023-04-12T23:15:06.171Z,75.83
2023-04-12T23:17:51.630Z,75.90
2023-04-12T23:20:39.033Z,75.88
2023-04-12T23:23:14.511Z,75.85
2023-04-12T23:25:46.875Z,75.83
2023-04-12T23:28:40.438Z,75.82
2023-04-12T23:31:33.287Z,75.82
2023-04-12T23:34:18.980Z,75.70
2023-04-12T23:37:12.611Z,75.71
2023-04-12T23:40:05.253Z,75.86
2023-04-12T23:42:58.295Z,75.97
2023-04-12T23:45:49.966Z,75.92
2023-04-12T23:48:42.870Z,75.95
2023-04-12T23:51:36.104Z,75.99
2023-04-12T23:54:27.540Z,75.95
2023-04-12T23:57:16.296Z,75.83
